createdAt,value
2023-03-03T00:02:09.380Z,69.69
2023-03-03T00:04:38.044Z,69.53
2023-03-03T00:07:06.820Z,69.88
2023-03-03T00:09:35.611Z,69.80
2023-03-03T00:12:28.466Z,69.67
2023-03-03T00:14:57.049Z,69.72
2023-03-03T00:17:29.831Z,69.73
2023-03-03T00:19:58.411Z,69.70
2023-03-03T00:22:30.544Z,69.56
2023-03-03T00:25:02.541Z,69.68
2023-03-03T00:27:35.844Z,69.61
2023-03-03T00:30:19.062Z,69.39
2023-03-03T00:32:50.517Z,69.42
2023-03-03T00:35:28.238Z,69.14
2023-03-03T00:38:02.026Z,69.28
2023-03-03T00:40:36.032Z,69.07
2023-03-03T00:43:21.932Z,69.21
2023-03-03T00:45:54.428Z,69.12
2023-03-03T00:48:30.870Z,69.00
2023-03-03T00:51:00.810Z,68.92
2023-03-03T00:53:29.982Z,68.99
2023-03-03T00:55:58.686Z,69.10
2023-03-03T00:58:27.763Z,69.44
2023-03-03T01:01:00.648Z,69.19
2023-03-03T01:03:44.283Z,69.30
2023-03-03T01:06:13.068Z,69.14
2023-03-03T01:08:41.455Z,69.07
2023-03-03T01:11:16.495Z,68.79
2023-03-03T01:13:46.399Z,68.62
2023-03-03T01:16:19.457Z,68.47
2023-03-03T01:18:50.638Z,68.66
2023-03-03T01:21:19.121Z,68.50
2023-03-03T01:23:47.497Z,68.65
2023-03-03T01:26:16.391Z,68.68
2023-03-03T01:28:44.766Z,68.79
2023-03-03T01:31:13.914Z,68.88
2023-03-03T01:33:42.347Z,68.95
2023-03-03T01:36:10.835Z,69.05
2023-03-03T01:38:40.042Z,69.06
2023-03-03T01:41:13.725Z,69.27
2023-03-03T01:43:46.304Z,69.39
2023-03-03T01:46:41.889Z,69.39
2023-03-03T01:49:16.022Z,69.27
2023-03-03T01:51:55.882Z,69.36
2023-03-03T01:54:46.693Z,69.22
2023-03-03T01:57:19.469Z,69.40
2023-03-03T01:59:49.439Z,69.46
2023-03-03T02:02:17.762Z,69.67
2023-03-03T02:04:48.395Z,69.85
2023-03-03T02:07:17.082Z,69.84
2023-03-03T02:10:05.848Z,69.83
2023-03-03T02:12:51.421Z,69.88
2023-03-03T02:15:24.512Z,70.27
2023-03-03T02:17:54.746Z,70.34
2023-03-03T02:20:26.805Z,70.53
2023-03-03T02:23:21.501Z,70.75
2023-03-03T02:25:58.619Z,70.81
2023-03-03T02:29:07.826Z,70.84
2023-03-03T02:31:37.702Z,70.99
2023-03-03T02:34:06.328Z,70.79
2023-03-03T02:36:36.778Z,71.04
2023-03-03T02:39:07.220Z,71.09
2023-03-03T02:41:53.538Z,71.19
2023-03-03T02:44:24.125Z,71.18
2023-03-03T02:46:54.446Z,71.40
2023-03-03T02:49:27.527Z,71.44
2023-03-03T02:51:56.139Z,71.66
2023-03-03T02:54:26.696Z,71.60
2023-03-03T02:56:55.223Z,71.92
2023-03-03T02:59:23.569Z,72.00
2023-03-03T03:01:54.533Z,71.80
2023-03-03T03:04:24.856Z,71.90
2023-03-03T03:06:54.780Z,71.67
2023-03-03T03:09:25.100Z,71.78
2023-03-03T03:11:54.096Z,71.82
2023-03-03T03:14:25.849Z,71.84
2023-03-03T03:16:56.196Z,71.70
2023-03-03T03:19:24.655Z,71.58
2023-03-03T03:21:53.137Z,71.62
2023-03-03T03:24:22.244Z,71.68
2023-03-03T03:26:55.932Z,71.75
2023-03-03T03:29:24.723Z,71.68
2023-03-03T03:31:53.354Z,71.84
2023-03-03T03:34:21.796Z,71.70
2023-03-03T03:36:51.017Z,71.73
2023-03-03T03:39:39.917Z,71.51
2023-03-03T03:42:08.840Z,71.58
2023-03-03T03:44:37.844Z,71.48
2023-03-03T03:47:09.999Z,71.62
2023-03-03T03:49:38.789Z,71.51
2023-03-03T03:52:07.272Z,71.40
2023-03-03T03:54:35.960Z,71.29
2023-03-03T03:57:04.342Z,71.23
2023-03-03T03:59:32.822Z,71.58
2023-03-03T04:02:01.944Z,71.41
2023-03-03T04:04:31.013Z,71.46
2023-03-03T04:06:59.914Z,71.63
2023-03-03T04:09:28.903Z,71.80
2023-03-03T04:11:57.793Z,71.72
2023-03-03T04:14:31.805Z,71.57
2023-03-03T04:17:00.396Z,71.70
2023-03-03T04:19:29.280Z,71.75
2023-03-03T04:21:58.487Z,71.93
2023-03-03T04:24:27.781Z,71.88
2023-03-03T04:26:57.601Z,72.07
2023-03-03T04:29:26.795Z,72.00
2023-03-03T04:31:55.533Z,72.02
2023-03-03T04:34:24.573Z,72.13
2023-03-03T04:36:53.157Z,72.12
2023-03-03T04:39:22.560Z,72.36
2023-03-03T04:41:51.758Z,72.12
2023-03-03T04:44:20.548Z,72.08
2023-03-03T04:46:50.569Z,71.97
2023-03-03T04:49:19.155Z,71.98
2023-03-03T04:51:49.369Z,72.25
2023-03-03T04:54:18.364Z,72.49
2023-03-03T04:56:47.051Z,72.52
2023-03-03T04:59:15.639Z,72.79
2023-03-03T05:01:46.731Z,72.41
2023-03-03T05:04:15.400Z,72.23
2023-03-03T05:06:45.272Z,72.32
2023-03-03T05:09:14.776Z,72.35
2023-03-03T05:11:43.396Z,72.30
2023-03-03T05:14:12.998Z,72.30
2023-03-03T05:16:42.474Z,72.49
2023-03-03T05:19:11.156Z,72.39
2023-03-03T05:21:42.987Z,72.54
2023-03-03T05:24:12.516Z,72.48
2023-03-03T05:26:42.231Z,72.41
2023-03-03T05:29:10.919Z,72.26
2023-03-03T05:31:39.322Z,72.38
2023-03-03T05:34:07.880Z,72.06
2023-03-03T05:36:36.261Z,72.10
2023-03-03T05:39:06.807Z,71.90
2023-03-03T05:41:37.164Z,71.84
2023-03-03T05:44:06.122Z,71.81
2023-03-03T05:46:34.503Z,72.05
2023-03-03T05:49:02.881Z,71.83
2023-03-03T05:51:33.305Z,71.80
2023-03-03T05:54:01.985Z,71.76
2023-03-03T05:56:30.466Z,71.62
2023-03-03T05:59:04.781Z,71.59
2023-03-03T06:01:34.114Z,71.34
2023-03-03T06:04:02.777Z,71.86
2023-03-03T06:06:31.564Z,71.98
2023-03-03T06:09:00.042Z,71.98
2023-03-03T06:11:29.660Z,72.08
2023-03-03T06:14:06.430Z,72.16
2023-03-03T06:16:35.394Z,72.24
2023-03-03T06:19:03.805Z,72.38
2023-03-03T06:21:32.691Z,72.30
2023-03-03T06:24:01.074Z,72.21
2023-03-03T06:26:31.842Z,72.27
2023-03-03T06:29:00.492Z,72.01
2023-03-03T06:31:28.927Z,72.14
2023-03-03T06:33:57.718Z,71.81
2023-03-03T06:36:29.012Z,71.66
2023-03-03T06:38:57.900Z,71.46
2023-03-03T06:41:26.488Z,71.33
2023-03-03T06:43:55.280Z,70.92
2023-03-03T06:46:23.974Z,70.91
2023-03-03T06:48:53.022Z,70.92
2023-03-03T06:51:32.913Z,70.98
2023-03-03T06:54:18.732Z,71.09
2023-03-03T06:56:47.481Z,70.64
2023-03-03T06:59:21.414Z,70.49
2023-03-03T07:01:50.231Z,70.74
2023-03-03T07:04:29.545Z,70.59
2023-03-03T07:06:59.542Z,70.60
2023-03-03T07:09:29.371Z,70.18
2023-03-03T07:12:19.241Z,69.86
2023-03-03T07:14:55.982Z,69.96
2023-03-03T07:17:25.330Z,69.64
2023-03-03T07:19:54.219Z,69.38
2023-03-03T07:22:25.419Z,69.26
2023-03-03T07:24:56.326Z,69.16
2023-03-03T07:27:26.474Z,69.26
2023-03-03T07:29:56.549Z,68.71
2023-03-03T07:32:27.826Z,68.47
2023-03-03T07:34:56.897Z,68.24
2023-03-03T07:37:38.904Z,67.93
2023-03-03T07:40:32.469Z,67.73
2023-03-03T07:43:00.948Z,67.37
2023-03-03T07:45:37.207Z,65.41
2023-03-03T07:48:42.675Z,65.12
2023-03-03T07:51:39.916Z,64.27
2023-03-03T07:54:16.240Z,64.22
2023-03-03T07:56:45.072Z,64.18
2023-03-03T07:59:33.229Z,63.75
2023-03-03T08:02:03.027Z,63.02
2023-03-03T08:04:51.214Z,62.58
2023-03-03T08:07:22.221Z,62.60
2023-03-03T08:09:52.160Z,62.57
2023-03-03T08:12:43.553Z,62.56
2023-03-03T08:15:20.326Z,62.50
2023-03-03T08:17:50.140Z,62.02
2023-03-03T08:20:48.720Z,61.93
2023-03-03T08:23:18.104Z,62.15
2023-03-03T08:25:47.322Z,61.89
2023-03-03T08:28:16.584Z,61.64
2023-03-03T08:30:47.551Z,61.05
2023-03-03T08:33:17.357Z,60.71
2023-03-03T08:35:46.091Z,60.31
2023-03-03T08:38:17.430Z,59.96
2023-03-03T08:40:46.508Z,60.03
2023-03-03T08:43:23.086Z,60.12
2023-03-03T08:45:53.078Z,59.24
2023-03-03T08:48:21.386Z,59.03
2023-03-03T08:50:50.176Z,59.12
2023-03-03T08:53:18.861Z,59.04
2023-03-03T08:55:48.059Z,58.72
2023-03-03T08:58:17.769Z,58.60
2023-03-03T09:00:51.242Z,58.26
2023-03-03T09:03:40.336Z,58.21
2023-03-03T09:06:10.254Z,58.20
2023-03-03T09:08:39.144Z,58.27
2023-03-03T09:11:14.799Z,58.06
2023-03-03T09:13:53.460Z,58.15
2023-03-03T09:16:22.539Z,58.28
2023-03-03T09:18:54.682Z,57.67
2023-03-03T09:21:26.251Z,57.47
2023-03-03T09:23:58.711Z,57.60
2023-03-03T09:26:32.135Z,57.95
2023-03-03T09:29:29.373Z,58.28
2023-03-03T09:32:01.005Z,57.98
2023-03-03T09:34:40.471Z,57.59
2023-03-03T09:37:36.711Z,57.03
2023-03-03T09:40:25.766Z,57.27
2023-03-03T09:43:04.600Z,57.65
2023-03-03T09:45:38.195Z,57.63
2023-03-03T09:48:28.388Z,57.40
2023-03-03T09:51:06.093Z,57.29
2023-03-03T09:53:46.860Z,56.78
2023-03-03T09:56:35.626Z,57.04
2023-03-03T09:59:22.226Z,57.13
2023-03-03T10:01:52.962Z,57.21
2023-03-03T10:04:25.919Z,57.28
2023-03-03T10:07:07.237Z,57.25
2023-03-03T10:10:15.040Z,57.12
2023-03-03T10:13:11.482Z,56.81
2023-03-03T10:16:05.758Z,56.93
2023-03-03T10:18:47.255Z,57.09
2023-03-03T10:21:25.677Z,56.53
2023-03-03T10:24:18.730Z,55.72
2023-03-03T10:27:13.488Z,55.11
2023-03-03T10:30:39.007Z,55.35
2023-03-03T10:33:24.081Z,55.30
2023-03-03T10:36:13.208Z,54.71
2023-03-03T10:38:51.540Z,53.95
2023-03-03T10:41:37.090Z,53.67
2023-03-03T10:44:18.167Z,53.74
2023-03-03T10:46:52.517Z,53.00
2023-03-03T10:49:46.510Z,52.84
2023-03-03T10:52:19.369Z,52.80
2023-03-03T10:55:10.262Z,52.80
2023-03-03T10:58:08.319Z,52.57
2023-03-03T11:01:21.332Z,52.11
2023-03-03T11:03:53.948Z,52.26
2023-03-03T11:06:40.972Z,52.91
2023-03-03T11:09:12.930Z,52.73
2023-03-03T11:11:47.440Z,52.38
2023-03-03T11:14:39.286Z,52.28
2023-03-03T11:17:35.112Z,50.53
2023-03-03T11:20:20.612Z,50.05
2023-03-03T11:22:58.854Z,50.32
2023-03-03T11:25:56.268Z,50.58
2023-03-03T11:29:01.521Z,51.37
2023-03-03T11:31:42.915Z,51.63
2023-03-03T11:34:48.969Z,50.52
2023-03-03T11:37:37.969Z,50.48
2023-03-03T11:40:38.198Z,50.06
2023-03-03T11:43:35.725Z,47.33
2023-03-03T11:46:16.843Z,47.37
2023-03-03T11:48:58.903Z,47.80
2023-03-03T11:51:36.499Z,48.83
2023-03-03T11:54:33.141Z,48.07
2023-03-03T11:57:10.027Z,47.68
2023-03-03T11:59:41.882Z,48.17
2023-03-03T12:02:17.358Z,49.40
2023-03-03T12:04:56.869Z,48.24
2023-03-03T12:07:59.417Z,47.24
2023-03-03T12:10:29.070Z,47.11
2023-03-03T12:13:11.675Z,48.13
2023-03-03T12:15:50.341Z,49.12
2023-03-03T12:18:57.895Z,49.91
2023-03-03T12:21:30.070Z,50.32
2023-03-03T12:24:03.065Z,50.15
2023-03-03T12:26:51.912Z,51.90
2023-03-03T12:29:23.263Z,53.91
2023-03-03T12:32:10.622Z,55.00
2023-03-03T12:34:44.094Z,55.52
2023-03-03T12:37:36.368Z,56.12
2023-03-03T12:40:24.782Z,56.62
2023-03-03T12:43:48.971Z,56.75
2023-03-03T12:46:17.516Z,56.92
2023-03-03T12:48:46.295Z,57.06
2023-03-03T12:51:52.308Z,56.88
2023-03-03T12:54:42.090Z,57.26
2023-03-03T12:57:15.385Z,56.89
2023-03-03T13:00:11.720Z,56.62
2023-03-03T13:02:45.938Z,56.78
2023-03-03T13:05:41.148Z,57.13
2023-03-03T13:08:31.550Z,57.59
2023-03-03T13:11:06.991Z,57.80
2023-03-03T13:13:50.015Z,57.84
2023-03-03T13:16:40.299Z,57.77
2023-03-03T13:19:11.313Z,58.00
2023-03-03T13:21:51.096Z,57.89
2023-03-03T13:24:37.705Z,58.12
2023-03-03T13:27:08.522Z,58.16
2023-03-03T13:29:42.263Z,58.37
2023-03-03T13:32:41.625Z,58.45
2023-03-03T13:35:34.687Z,58.87
2023-03-03T13:38:04.529Z,59.40
2023-03-03T13:40:43.877Z,59.11
2023-03-03T13:43:23.102Z,58.95
2023-03-03T13:46:13.915Z,59.04
2023-03-03T13:48:59.289Z,59.19
2023-03-03T13:52:05.968Z,59.36
2023-03-03T13:54:57.715Z,58.79
2023-03-03T13:57:46.252Z,58.96
2023-03-03T14:00:39.402Z,58.85
2023-03-03T14:03:33.185Z,59.01
2023-03-03T14:06:05.456Z,59.11
2023-03-03T14:09:04.972Z,58.90
2023-03-03T14:11:48.101Z,58.96
2023-03-03T14:15:04.403Z,58.90
2023-03-03T14:18:16.406Z,59.08
2023-03-03T14:20:48.780Z,58.69
2023-03-03T14:23:21.260Z,58.59
2023-03-03T14:26:05.735Z,58.89
2023-03-03T14:29:04.411Z,59.09
2023-03-03T14:31:40.685Z,58.81
2023-03-03T14:34:12.125Z,58.77
2023-03-03T14:36:41.948Z,58.70
2023-03-03T14:39:34.451Z,58.39
2023-03-03T14:42:07.271Z,58.45
2023-03-03T14:46:45.305Z,58.12
2023-03-03T14:49:15.927Z,57.34
2023-03-03T14:51:48.544Z,56.82
2023-03-03T14:54:22.727Z,56.36
2023-03-03T14:56:58.579Z,56.38
2023-03-03T14:59:28.261Z,55.69
2023-03-03T15:02:18.389Z,55.64
2023-03-03T15:04:47.774Z,56.00
2023-03-03T15:07:35.522Z,56.27
2023-03-03T15:10:07.038Z,56.26
2023-03-03T15:12:41.416Z,56.33
2023-03-03T15:15:20.711Z,56.61
2023-03-03T15:18:02.876Z,56.71
2023-03-03T15:20:45.655Z,57.16
2023-03-03T15:23:39.331Z,57.54
2023-03-03T15:26:11.509Z,57.88
2023-03-03T15:28:44.587Z,58.14
2023-03-03T15:31:41.236Z,58.20
2023-03-03T15:34:25.590Z,58.25
2023-03-03T15:37:25.817Z,58.32
2023-03-03T15:40:09.657Z,58.49
2023-03-03T15:42:49.489Z,58.49
2023-03-03T15:45:40.511Z,58.54
2023-03-03T15:48:17.818Z,58.63
2023-03-03T15:51:34.540Z,59.04
2023-03-03T15:54:35.408Z,59.20
2023-03-03T15:57:33.752Z,59.62
2023-03-03T16:00:33.769Z,59.56
2023-03-03T16:03:02.835Z,59.86
2023-03-03T16:05:53.576Z,60.37
2023-03-03T16:08:38.744Z,60.68
2023-03-03T16:11:11.324Z,60.57
2023-03-03T16:13:44.006Z,60.74
2023-03-03T16:16:35.173Z,60.71
2023-03-03T16:19:28.902Z,60.91
2023-03-03T16:22:10.181Z,61.06
2023-03-03T16:24:59.551Z,61.08
2023-03-03T16:27:40.232Z,61.33
2023-03-03T16:30:27.774Z,61.75
2023-03-03T16:33:18.361Z,62.09
2023-03-03T16:36:00.068Z,62.27
2023-03-03T16:38:42.384Z,62.35
2023-03-03T16:41:18.419Z,62.48
2023-03-03T16:44:05.262Z,62.60
2023-03-03T16:46:48.576Z,62.80
2023-03-03T16:50:02.334Z,62.83
2023-03-03T16:52:45.128Z,63.40
2023-03-03T16:55:19.590Z,63.57
2023-03-03T16:58:20.392Z,63.63
2023-03-03T17:01:17.059Z,63.88
2023-03-03T17:04:02.212Z,64.01
2023-03-03T17:06:47.288Z,63.82
2023-03-03T17:09:32.093Z,64.23
2023-03-03T17:12:23.904Z,64.22
2023-03-03T17:15:30.273Z,64.34
2023-03-03T17:18:15.424Z,64.20
2023-03-03T17:20:51.481Z,64.27
2023-03-03T17:23:23.648Z,64.14
2023-03-03T17:26:08.312Z,64.21
2023-03-03T17:28:55.279Z,64.14
2023-03-03T17:31:51.513Z,64.23
2023-03-03T17:34:45.134Z,64.62
2023-03-03T17:37:36.455Z,64.70
2023-03-03T17:40:22.243Z,64.79
2023-03-03T17:43:11.821Z,64.89
2023-03-03T17:45:42.705Z,65.23
2023-03-03T17:48:37.053Z,65.38
2023-03-03T17:51:23.558Z,65.55
2023-03-03T17:54:05.766Z,65.87
2023-03-03T17:57:10.499Z,65.67
2023-03-03T17:59:51.482Z,65.71
2023-03-03T18:02:42.362Z,65.93
2023-03-03T18:05:34.616Z,66.19
2023-03-03T18:08:24.311Z,66.37
2023-03-03T18:11:32.316Z,67.01
2023-03-03T18:14:32.853Z,67.04
2023-03-03T18:17:20.492Z,67.42
2023-03-03T18:20:17.043Z,67.54
2023-03-03T18:22:47.456Z,67.80
2023-03-03T18:25:16.764Z,68.31
2023-03-03T18:27:46.430Z,68.40
2023-03-03T18:30:18.633Z,68.64
2023-03-03T18:32:56.752Z,68.62
2023-03-03T18:35:27.297Z,68.76
2023-03-03T18:37:56.065Z,68.91
2023-03-03T18:40:24.487Z,69.12
2023-03-03T18:42:54.264Z,69.13
2023-03-03T18:45:24.893Z,69.21
2023-03-03T18:48:13.697Z,69.34
2023-03-03T18:50:49.516Z,69.51
2023-03-03T18:53:31.531Z,69.77
2023-03-03T18:56:01.280Z,69.95
2023-03-03T18:58:30.933Z,69.88
2023-03-03T19:01:10.409Z,70.01
2023-03-03T19:03:47.761Z,70.03
2023-03-03T19:06:31.405Z,70.14
2023-03-03T19:08:59.780Z,70.31
2023-03-03T19:11:35.967Z,70.36
2023-03-03T19:14:26.133Z,70.71
2023-03-03T19:17:21.240Z,70.76
2023-03-03T19:20:18.598Z,71.07
2023-03-03T19:22:51.484Z,71.06
2023-03-03T19:25:29.798Z,71.15
2023-03-03T19:28:33.624Z,71.53
2023-03-03T19:31:05.035Z,71.74
2023-03-03T19:33:53.483Z,71.87
2023-03-03T19:36:51.177Z,71.73
2023-03-03T19:39:49.156Z,71.65
2023-03-03T19:42:36.377Z,71.83
2023-03-03T19:45:30.259Z,72.28
2023-03-03T19:48:09.395Z,72.31
2023-03-03T19:51:00.299Z,72.52
2023-03-03T19:53:34.551Z,72.39
2023-03-03T19:56:20.098Z,72.54
2023-03-03T19:59:06.918Z,72.70
2023-03-03T20:01:54.154Z,72.87
2023-03-03T20:04:48.345Z,72.96
2023-03-03T20:07:33.910Z,72.91
2023-03-03T20:10:15.830Z,72.95
2023-03-03T20:13:07.026Z,73.15
2023-03-03T20:15:52.271Z,73.02
2023-03-03T20:18:26.564Z,72.97
2023-03-03T20:21:08.923Z,72.97
2023-03-03T20:24:15.188Z,73.37
2023-03-03T20:27:06.124Z,73.38
2023-03-03T20:29:43.693Z,73.50
2023-03-03T20:32:15.059Z,73.64
2023-03-03T20:35:14.450Z,73.64
2023-03-03T20:37:52.464Z,73.67
2023-03-03T20:40:29.769Z,73.67
2023-03-03T20:43:06.947Z,73.72
2023-03-03T20:45:58.032Z,73.50
2023-03-03T20:48:48.957Z,73.67
2023-03-03T20:51:51.908Z,73.82
2023-03-03T20:54:39.205Z,73.99
2023-03-03T20:57:16.568Z,73.94
2023-03-03T21:00:01.126Z,73.79
2023-03-03T21:02:51.057Z,74.06
2023-03-03T21:05:22.590Z,74.16
2023-03-03T21:08:01.603Z,74.20
2023-03-03T21:10:35.923Z,74.11
2023-03-03T21:13:26.312Z,74.15
2023-03-03T21:15:56.494Z,74.24
2023-03-03T21:18:24.817Z,74.17
2023-03-03T21:20:53.807Z,74.58
2023-03-03T21:23:23.414Z,74.42
2023-03-03T21:25:58.981Z,74.62
2023-03-03T21:28:32.869Z,74.95
2023-03-03T21:31:17.530Z,74.85
2023-03-03T21:33:55.891Z,74.78
2023-03-03T21:36:44.607Z,74.80
2023-03-03T21:39:20.150Z,74.61
2023-03-03T21:42:06.553Z,74.39
2023-03-03T21:44:38.104Z,74.29
2023-03-03T21:47:08.436Z,74.22
2023-03-03T21:49:56.576Z,73.69
2023-03-03T21:52:24.958Z,73.63
2023-03-03T21:54:53.544Z,73.75
2023-03-03T21:57:27.043Z,73.67
2023-03-03T21:59:56.958Z,73.30
2023-03-03T22:02:25.347Z,73.42
2023-03-03T22:04:54.471Z,73.17
2023-03-03T22:07:22.813Z,73.20
2023-03-03T22:09:52.116Z,73.04
2023-03-03T22:12:20.601Z,73.19
2023-03-03T22:14:54.533Z,73.33
2023-03-03T22:17:25.753Z,73.30
2023-03-03T22:19:55.875Z,73.30
2023-03-03T22:22:24.767Z,73.39
2023-03-03T22:24:54.181Z,73.59
2023-03-03T22:27:23.988Z,73.67
2023-03-03T22:29:52.369Z,73.67
2023-03-03T22:32:20.799Z,73.50
2023-03-03T22:34:49.540Z,73.36
2023-03-03T22:37:17.944Z,73.41
2023-03-03T22:39:46.304Z,73.28
2023-03-03T22:42:14.682Z,73.28
2023-03-03T22:44:45.731Z,73.31
2023-03-03T22:47:14.309Z,73.26
2023-03-03T22:49:42.641Z,73.33
2023-03-03T22:52:11.174Z,73.12
2023-03-03T22:54:42.652Z,73.31
2023-03-03T22:57:11.413Z,73.65
2023-03-03T22:59:39.793Z,73.78
2023-03-03T23:02:09.299Z,73.92
2023-03-03T23:04:37.724Z,74.03
2023-03-03T23:07:07.798Z,74.29
2023-03-03T23:09:41.508Z,74.39
2023-03-03T23:12:17.982Z,74.58
2023-03-03T23:14:49.315Z,74.43
2023-03-03T23:17:17.910Z,74.70
2023-03-03T23:19:52.937Z,74.89
2023-03-03T23:22:21.726Z,75.10
2023-03-03T23:24:50.108Z,75.18
2023-03-03T23:27:18.916Z,75.38
2023-03-03T23:29:47.373Z,75.75
2023-03-03T23:32:15.786Z,75.87
2023-03-03T23:34:44.957Z,75.79
2023-03-03T23:37:14.869Z,75.92
2023-03-03T23:39:43.557Z,76.41
2023-03-03T23:42:11.936Z,76.39
2023-03-03T23:44:40.632Z,76.36
2023-03-03T23:47:15.452Z,76.39
2023-03-03T23:49:44.138Z,76.45
2023-03-03T23:52:12.518Z,76.47
2023-03-03T23:54:40.897Z,76.62
2023-03-03T23:57:09.378Z,76.78
2023-03-03T23:59:37.759Z,76.76
